createdAt,value
2023-01-24T00:01:27.082Z,9.80
2023-01-24T00:06:47.751Z,9.52
2023-01-24T00:12:08.316Z,11.63
2023-01-24T00:17:28.990Z,9.38
2023-01-24T00:22:49.739Z,9.95
2023-01-24T00:28:10.437Z,8.98
2023-01-24T00:33:31.412Z,9.70
2023-01-24T00:38:53.759Z,7.10
2023-01-24T00:44:14.740Z,10.73
2023-01-24T00:49:35.619Z,10.52
2023-01-24T00:54:56.870Z,8.25
2023-01-24T01:00:17.942Z,10.23
2023-01-24T01:05:38.896Z,8.77
2023-01-24T01:11:00.528Z,8.45
2023-01-24T01:16:21.639Z,10.63
2023-01-24T01:21:45.467Z,10.38
2023-01-24T01:27:06.410Z,10.90
2023-01-24T01:32:27.161Z,9.05
2023-01-24T01:37:47.909Z,10.13
2023-01-24T01:43:15.605Z,9.57
2023-01-24T01:48:40.542Z,7.90
2023-01-24T01:54:06.873Z,10.18
2023-01-24T01:59:31.580Z,9.77
2023-01-24T02:05:06.061Z,8.43
2023-01-24T02:10:48.955Z,9.45
2023-01-24T02:16:11.816Z,7.70
2023-01-24T02:21:33.739Z,10.02
2023-01-24T02:26:54.911Z,10.55
2023-01-24T02:32:17.499Z,9.20
2023-01-24T02:37:38.620Z,9.77
2023-01-24T02:43:02.231Z,8.68
2023-01-24T02:48:22.884Z,10.02
2023-01-24T02:53:43.668Z,8.85
2023-01-24T02:59:04.319Z,10.02
2023-01-24T03:04:27.210Z,10.05
2023-01-24T03:09:47.915Z,10.63
2023-01-24T03:15:32.867Z,7.47
2023-01-24T03:21:12.111Z,8.35
2023-01-24T03:26:51.621Z,11.20
2023-01-24T03:32:33.383Z,9.98
2023-01-24T03:38:13.383Z,9.77
2023-01-24T03:43:34.750Z,8.87
2023-01-24T03:48:55.852Z,11.88
2023-01-24T03:54:25.303Z,8.93
2023-01-24T03:59:52.157Z,11.60
2023-01-24T04:05:14.398Z,8.57
2023-01-24T04:10:37.435Z,10.60
2023-01-24T04:15:58.169Z,8.90
2023-01-24T04:21:39.011Z,11.25
2023-01-24T04:26:59.731Z,11.60
2023-01-24T04:32:26.509Z,11.50
2023-01-24T04:37:53.373Z,10.35
2023-01-24T04:43:29.260Z,12.55
2023-01-24T04:48:51.518Z,12.15
2023-01-24T04:54:12.866Z,8.70
2023-01-24T04:59:34.310Z,11.75
2023-01-24T05:04:55.157Z,11.68
2023-01-24T05:10:16.593Z,12.82
2023-01-24T05:15:50.548Z,13.32
2023-01-24T05:21:14.980Z,13.40
2023-01-24T05:26:37.313Z,11.85
2023-01-24T05:31:58.406Z,11.98
2023-01-24T05:37:19.039Z,11.85
2023-01-24T05:42:44.114Z,10.70
2023-01-24T05:48:06.202Z,8.05
2023-01-24T05:53:29.337Z,10.88
2023-01-24T05:58:50.452Z,12.48
2023-01-24T06:04:13.169Z,13.15
2023-01-24T06:09:34.425Z,13.32
2023-01-24T06:14:56.106Z,10.80
2023-01-24T06:20:17.343Z,12.25
2023-01-24T06:25:38.537Z,12.48
2023-01-24T06:31:06.057Z,11.90
2023-01-24T06:36:41.983Z,13.02
2023-01-24T06:42:03.110Z,11.60
2023-01-24T06:47:26.220Z,11.00
2023-01-24T06:52:49.010Z,12.43
2023-01-24T06:58:09.898Z,11.48
2023-01-24T07:03:30.555Z,12.40
2023-01-24T07:08:51.261Z,12.98
2023-01-24T07:14:11.886Z,11.27
2023-01-24T07:19:32.998Z,13.02
2023-01-24T07:24:54.503Z,12.40
2023-01-24T07:30:15.358Z,11.68
2023-01-24T07:35:36.032Z,12.43
2023-01-24T07:40:56.741Z,12.57
2023-01-24T07:46:17.509Z,12.10
2023-01-24T07:51:38.414Z,11.60
2023-01-24T07:56:59.032Z,12.88
2023-01-24T08:02:19.797Z,10.43
2023-01-24T08:07:40.543Z,11.30
2023-01-24T08:13:01.312Z,12.10
2023-01-24T08:18:21.926Z,10.13
2023-01-24T08:23:42.719Z,10.60
2023-01-24T08:29:03.908Z,11.38
2023-01-24T08:34:24.544Z,10.70
2023-01-24T08:39:45.261Z,10.65
2023-01-24T08:45:06.343Z,11.43
2023-01-24T08:50:28.187Z,12.07
2023-01-24T08:55:50.548Z,12.77
2023-01-24T09:01:12.065Z,11.70
2023-01-24T09:06:33.627Z,11.57
2023-01-24T09:11:54.403Z,11.35
2023-01-24T09:17:15.062Z,9.75
2023-01-24T09:22:36.219Z,12.57
2023-01-24T09:27:57.237Z,11.90
2023-01-24T09:33:19.180Z,9.82
2023-01-24T09:38:40.068Z,12.43
2023-01-24T09:44:04.145Z,9.05
2023-01-24T09:49:51.802Z,10.75
2023-01-24T09:55:38.319Z,11.48
2023-01-24T10:01:06.408Z,10.93
2023-01-24T10:06:30.434Z,11.45
2023-01-24T10:12:17.231Z,13.63
2023-01-24T10:17:53.147Z,12.30
2023-01-24T10:23:22.264Z,13.35
2023-01-24T10:28:52.734Z,13.88
2023-01-24T10:34:25.737Z,11.02
2023-01-24T10:39:46.725Z,11.95
2023-01-24T10:45:35.494Z,10.88
2023-01-24T10:51:17.441Z,12.13
2023-01-24T10:56:42.075Z,10.18
2023-01-24T11:02:03.288Z,10.93
2023-01-24T11:07:39.781Z,11.30
2023-01-24T11:13:02.661Z,10.48
2023-01-24T11:18:28.729Z,10.73
2023-01-24T11:24:08.228Z,9.20
2023-01-24T11:29:29.477Z,10.00
2023-01-24T11:34:50.470Z,9.40
2023-01-24T11:40:29.430Z,9.77
2023-01-24T11:46:12.147Z,9.38
2023-01-24T11:51:51.279Z,8.70
2023-01-24T11:57:24.532Z,9.77
2023-01-24T12:02:54.587Z,9.45
2023-01-24T12:14:16.393Z,8.52
2023-01-24T12:19:46.176Z,7.82
2023-01-24T12:25:26.837Z,7.55
2023-01-24T12:30:54.928Z,8.65
2023-01-24T12:36:42.260Z,9.57
2023-01-24T12:42:22.922Z,7.72
2023-01-24T12:47:52.920Z,8.27
2023-01-24T12:53:27.660Z,9.02
2023-01-24T12:58:52.760Z,9.25
2023-01-24T13:04:24.588Z,7.28
2023-01-24T13:10:36.148Z,7.15
2023-01-24T13:16:14.910Z,9.73
2023-01-24T13:21:51.335Z,10.73
2023-01-24T13:27:16.917Z,7.95
2023-01-24T13:32:39.836Z,9.30
2023-01-24T13:38:16.733Z,7.45
2023-01-24T13:43:37.334Z,8.90
2023-01-24T13:48:58.675Z,8.30
2023-01-24T13:54:35.509Z,8.65
2023-01-24T14:00:15.667Z,7.68
2023-01-24T14:06:04.683Z,8.32
2023-01-24T14:11:36.589Z,7.93
2023-01-24T14:17:00.305Z,8.70
2023-01-24T14:22:28.354Z,8.38
2023-01-24T14:27:56.372Z,8.90
2023-01-24T14:33:28.037Z,8.35
2023-01-24T14:38:48.884Z,4.32
2023-01-24T14:44:23.163Z,8.85
2023-01-24T14:49:47.119Z,8.43
2023-01-24T14:55:43.402Z,7.57
2023-01-24T15:01:04.482Z,8.50
2023-01-24T15:06:28.159Z,8.00
2023-01-24T15:11:49.043Z,8.80
2023-01-24T15:17:25.582Z,8.68
2023-01-24T15:22:53.922Z,8.40
2023-01-24T15:28:30.253Z,8.73
2023-01-24T15:33:59.854Z,8.40
2023-01-24T15:39:20.982Z,8.20
2023-01-24T15:44:51.109Z,8.70
2023-01-24T15:50:59.305Z,9.23
2023-01-24T15:56:23.077Z,8.88
2023-01-24T16:01:44.331Z,9.52
2023-01-24T16:07:05.059Z,9.05
2023-01-24T16:12:35.502Z,10.23
2023-01-24T16:17:56.461Z,10.50
2023-01-24T16:23:17.235Z,14.50
2023-01-24T16:28:38.459Z,11.10
2023-01-24T16:33:59.334Z,11.38
2023-01-24T16:39:22.535Z,10.73
2023-01-24T16:44:43.987Z,9.95
2023-01-24T16:50:05.788Z,10.18
2023-01-24T16:55:26.791Z,11.10
2023-01-24T17:00:47.736Z,11.57
2023-01-24T17:06:09.755Z,10.18
2023-01-24T17:11:31.473Z,10.63
2023-01-24T17:16:52.313Z,11.32
2023-01-24T17:22:13.387Z,11.70
2023-01-24T17:27:34.380Z,12.50
2023-01-24T17:32:55.386Z,13.57
2023-01-24T17:38:17.348Z,11.52
2023-01-24T17:43:51.611Z,12.00
2023-01-24T17:49:13.448Z,15.30
2023-01-24T17:54:34.503Z,13.20
2023-01-24T17:59:55.287Z,12.60
2023-01-24T18:05:16.133Z,14.13
2023-01-24T18:10:38.206Z,14.52
2023-01-24T18:16:06.582Z,13.80
2023-01-24T18:21:27.670Z,12.40
2023-01-24T18:26:48.304Z,13.18
2023-01-24T18:32:09.063Z,14.05
2023-01-24T18:37:29.986Z,15.70
2023-01-24T18:42:50.798Z,15.18
2023-01-24T18:48:11.426Z,16.20
2023-01-24T18:53:32.359Z,16.63
2023-01-24T18:58:53.060Z,19.25
2023-01-24T19:04:13.852Z,15.55
2023-01-24T19:09:34.797Z,14.90
2023-01-24T19:14:55.668Z,15.30
2023-01-24T19:27:13.310Z,16.27
2023-01-24T19:32:37.246Z,15.43
2023-01-24T19:37:57.923Z,17.45
2023-01-24T19:43:18.902Z,14.07
2023-01-24T19:48:40.335Z,16.23
2023-01-24T19:54:01.037Z,15.95
2023-01-24T19:59:22.659Z,17.15
2023-01-24T20:04:52.018Z,16.48
2023-01-24T20:10:14.217Z,17.40
2023-01-24T20:15:34.933Z,17.10
2023-01-24T20:20:55.722Z,14.48
2023-01-24T20:26:16.719Z,16.02
2023-01-24T20:31:37.639Z,14.40
2023-01-24T20:36:58.537Z,14.32
2023-01-24T20:42:19.376Z,15.18
2023-01-24T20:47:40.543Z,16.90
2023-01-24T20:53:01.152Z,16.35
2023-01-24T20:58:22.648Z,19.00
2023-01-24T21:03:43.936Z,19.98
2023-01-24T21:09:05.483Z,17.40
2023-01-24T21:14:27.215Z,17.42
2023-01-24T21:19:48.457Z,18.70
2023-01-24T21:25:10.355Z,18.58
2023-01-24T21:30:32.062Z,18.98
2023-01-24T21:36:03.724Z,19.80
2023-01-24T21:41:42.930Z,19.95
2023-01-24T21:47:05.252Z,19.08
2023-01-24T21:52:25.838Z,19.45
2023-01-24T21:58:15.784Z,19.58
2023-01-24T22:03:36.712Z,18.77
2023-01-24T22:08:57.495Z,18.17
2023-01-24T22:14:24.328Z,17.67
2023-01-24T22:19:56.494Z,19.67
2023-01-24T22:25:44.185Z,19.33
2023-01-24T22:31:05.376Z,18.40
2023-01-24T22:36:26.386Z,16.58
2023-01-24T22:41:47.013Z,18.65
2023-01-24T22:47:07.696Z,19.50
2023-01-24T22:52:28.410Z,18.38
2023-01-24T22:57:49.202Z,17.27
2023-01-24T23:03:09.687Z,16.65
2023-01-24T23:08:30.322Z,17.38
2023-01-24T23:14:10.067Z,16.10
2023-01-24T23:19:52.505Z,18.77
2023-01-24T23:25:13.418Z,17.23
2023-01-24T23:30:54.296Z,17.17
2023-01-24T23:36:15.035Z,15.93
2023-01-24T23:41:35.682Z,15.07
2023-01-24T23:46:56.380Z,16.27
2023-01-24T23:52:18.101Z,16.38
2023-01-24T23:57:38.752Z,15.90
